Time;durP1;ratioP1;P1;durP2;ratioP2;P2;SDS_P1;SDS_P2;PMS_P1;PMS_P2;Temp;Humidity;BMP_temperature;BMP_pressure;BME280_temperature;BME280_humidity;BME280_pressure;Samples;Min_cycle;Max_cycle;Signal;HPM_P1;HPM_P2
2023/05/20 00:00:32;;;;;;;5.65;4.00;;;;;;;11.62;69.34;102561.50;6250598;22;20027;-85
2023/05/20 00:02:59;;;;;;;6.28;3.97;;;;;;;11.58;69.92;102565.41;6251083;22;20013;-85
2023/05/20 00:05:26;;;;;;;7.88;4.50;;;;;;;11.56;69.94;102560.47;6249219;22;20020;-83
2023/05/20 00:07:52;;;;;;;5.88;4.13;;;;;;;11.54;70.06;102562.00;6250843;22;20016;-83
2023/05/20 00:10:19;;;;;;;5.97;4.35;;;;;;;11.49;69.61;102560.56;6250017;22;20020;-83
2023/05/20 00:12:45;;;;;;;10.10;4.03;;;;;;;11.48;70.20;102555.63;6250989;22;20084;-84
2023/05/20 00:15:12;;;;;;;9.30;4.40;;;;;;;11.45;70.06;102551.84;6248483;22;20461;-84
2023/05/20 00:17:39;;;;;;;10.68;4.40;;;;;;;11.43;70.49;102556.06;6249133;22;20055;-83
2023/05/20 00:20:07;;;;;;;8.23;4.35;;;;;;;11.40;70.49;102565.63;6249273;22;20366;-83
2023/05/20 00:22:33;;;;;;;6.13;4.03;;;;;;;11.37;70.28;102558.41;6250490;22;20462;-84
2023/05/20 00:25:00;;;;;;;5.00;4.50;;;;;;;11.35;70.80;102566.81;6250875;22;20092;-84
2023/05/20 00:27:26;;;;;;;9.75;4.78;;;;;;;11.33;70.50;102565.69;6248008;22;20528;-84
2023/05/20 00:29:53;;;;;;;4.60;3.90;;;;;;;11.31;70.74;102568.00;6248968;22;20027;-84
2023/05/20 00:32:19;;;;;;;6.05;4.45;;;;;;;11.26;71.36;102560.44;6248044;22;20455;-83
2023/05/20 00:34:56;;;;;;;5.68;4.32;;;;;;;11.27;70.96;102567.28;6250161;22;20013;-83
2023/05/20 00:37:23;;;;;;;6.55;4.20;;;;;;;11.23;71.29;102562.00;6248107;22;20020;-83
2023/05/20 00:39:50;;;;;;;6.82;4.10;;;;;;;11.22;71.25;102562.41;6250706;22;20028;-83
2023/05/20 00:42:27;;;;;;;5.97;4.13;;;;;;;11.19;70.95;102560.56;6249702;22;20023;-83
2023/05/20 00:44:54;;;;;;;6.68;4.43;;;;;;;11.16;71.50;102554.13;6250667;22;20075;-84
2023/05/20 00:47:31;;;;;;;8.85;4.65;;;;;;;11.13;71.54;102559.47;6248087;22;20025;-83
2023/05/20 00:49:59;;;;;;;6.63;4.30;;;;;;;11.11;71.96;102551.88;6250054;22;20028;-84
2023/05/20 00:52:29;;;;;;;7.97;4.20;;;;;;;11.11;72.18;102545.81;6249897;22;20017;-83
2023/05/20 00:54:57;;;;;;;9.55;4.32;;;;;;;11.09;72.01;102551.53;6250585;22;20040;-84
2023/05/20 00:57:24;;;;;;;10.30;4.68;;;;;;;11.08;72.22;102544.69;6249093;22;20017;-83
2023/05/20 00:59:51;;;;;;;5.53;4.30;;;;;;;11.06;72.61;102543.56;6248922;22;20079;-83
2023/05/20 01:02:18;;;;;;;4.80;4.15;;;;;;;11.03;72.47;102543.22;6249709;22;20016;-84
2023/05/20 01:04:46;;;;;;;9.35;4.43;;;;;;;10.99;72.49;102539.84;6249950;22;20017;-83
2023/05/20 01:07:16;;;;;;;8.07;4.22;;;;;;;10.99;72.60;102531.84;6249463;22;20027;-83
2023/05/20 01:09:43;;;;;;;9.20;4.55;;;;;;;10.97;73.59;102538.72;6250321;22;20017;-83
2023/05/20 01:12:21;;;;;;;8.38;4.45;;;;;;;10.94;72.88;102539.50;6250093;22;20276;-84
2023/05/20 01:14:55;;;;;;;4.95;4.25;;;;;;;10.93;73.53;102535.34;6250817;22;20469;-84
2023/05/20 01:17:25;;;;;;;8.15;4.97;;;;;;;10.91;73.65;102532.31;6247101;22;20021;-84
2023/05/20 01:19:55;;;;;;;6.38;4.55;;;;;;;10.87;73.71;102531.59;6248609;22;20036;-84
2023/05/20 01:22:26;;;;;;;7.13;4.32;;;;;;;10.85;73.58;102525.91;6247575;22;20101;-83
2023/05/20 01:24:52;;;;;;;6.63;4.60;;;;;;;10.82;73.74;102524.78;6250555;22;20020;-84
2023/05/20 01:27:23;;;;;;;6.47;4.50;;;;;;;10.81;73.82;102527.84;6247808;22;20083;-84
2023/05/20 01:29:51;;;;;;;8.18;4.72;;;;;;;10.78;74.62;102526.75;6248822;22;20044;-83
2023/05/20 01:32:25;;;;;;;6.10;4.38;;;;;;;10.76;74.52;102521.06;6248847;22;20017;-84
2023/05/20 01:34:52;;;;;;;6.63;4.78;;;;;;;10.73;74.92;102523.78;6248134;22;20418;-84
2023/05/20 01:37:21;;;;;;;8.75;4.95;;;;;;;10.70;75.02;102517.34;6249407;22;20017;-84
2023/05/20 01:39:49;;;;;;;5.85;4.43;;;;;;;10.68;75.00;102508.97;6222897;22;20025;-84
2023/05/20 01:42:18;;;;;;;7.13;4.90;;;;;;;10.64;75.02;102511.69;6247775;22;20020;-84
2023/05/20 01:44:46;;;;;;;8.38;4.40;;;;;;;10.63;75.07;102501.41;6248042;22;20031;-83
2023/05/20 01:47:13;;;;;;;11.90;5.25;;;;;;;10.58;75.62;102499.19;6247144;22;20496;-84
2023/05/20 01:49:40;;;;;;;10.48;4.45;;;;;;;10.57;76.00;102503.00;6248508;22;20017;-84
2023/05/20 01:52:07;;;;;;;6.65;4.75;;;;;;;10.54;76.04;102506.47;6247972;22;20772;-83
2023/05/20 01:54:34;;;;;;;7.55;4.82;;;;;;;10.51;76.29;102501.91;6248054;22;20023;-83
2023/05/20 01:57:01;;;;;;;7.93;4.90;;;;;;;10.49;76.44;102517.53;6222579;22;20031;-83
2023/05/20 01:59:28;;;;;;;7.30;4.57;;;;;;;10.46;76.36;102513.00;6247592;22;20100;-83
2023/05/20 02:01:55;;;;;;;9.90;4.80;;;;;;;10.45;76.53;102512.25;6247959;22;20454;-83
2023/05/20 02:04:21;;;;;;;9.20;5.10;;;;;;;10.43;76.86;102509.22;6249015;22;20017;-84
2023/05/20 02:06:48;;;;;;;13.73;5.13;;;;;;;10.41;76.93;102502.78;6248093;22;20100;-83
2023/05/20 02:09:15;;;;;;;9.70;4.85;;;;;;;10.38;77.20;102498.25;6249276;22;20021;-83
2023/05/20 02:11:43;;;;;;;10.88;4.97;;;;;;;10.37;77.24;102504.75;6248070;22;20083;-84
2023/05/20 02:14:10;;;;;;;6.93;4.57;;;;;;;10.35;77.06;102505.13;6249744;22;20477;-84
2023/05/20 02:16:36;;;;;;;7.80;4.70;;;;;;;10.32;77.40;102505.91;6247237;22;20079;-84
2023/05/20 02:19:03;;;;;;;10.75;4.80;;;;;;;10.28;77.29;102495.31;6223170;22;20020;-83
2023/05/20 02:21:30;;;;;;;7.53;4.50;;;;;;;10.24;77.74;102504.47;6247539;22;20454;-84
2023/05/20 02:23:56;;;;;;;6.47;4.78;;;;;;;10.24;77.51;102512.44;6248197;22;20477;-83
2023/05/20 02:26:25;;;;;;;5.22;4.50;;;;;;;10.21;77.82;102502.59;6247352;22;20063;-84
2023/05/20 02:28:51;;;;;;;7.53;4.65;;;;;;;10.19;77.84;102508.31;6250091;22;20048;-83
2023/05/20 02:31:20;;;;;;;6.47;4.85;;;;;;;10.19;78.32;102502.19;6246419;22;20024;-83
2023/05/20 02:33:47;;;;;;;8.73;4.93;;;;;;;10.15;78.54;102510.22;6248415;22;20376;-83
2023/05/20 02:36:16;;;;;;;5.35;4.80;;;;;;;10.13;78.30;102507.19;6247127;22;20024;-83
2023/05/20 02:38:43;;;;;;;9.60;4.72;;;;;;;10.11;78.71;102503.41;6247988;22;20059;-83
2023/05/20 02:41:09;;;;;;;13.07;4.90;;;;;;;10.08;78.60;102499.63;6248212;22;20041;-84
2023/05/20 02:43:36;;;;;;;9.00;4.65;;;;;;;10.05;78.52;102495.06;6247797;22;20028;-84
2023/05/20 02:46:03;;;;;;;4.95;4.55;;;;;;;10.01;78.98;102495.09;6247429;22;20027;-84
2023/05/20 02:48:29;;;;;;;7.75;5.10;;;;;;;10.01;78.89;102494.34;6249279;22;20016;-84
2023/05/20 02:51:00;;;;;;;6.20;4.75;;;;;;;9.96;79.43;102487.56;6247891;22;20370;-83
2023/05/20 02:53:27;;;;;;;7.78;4.90;;;;;;;9.91;79.90;102487.22;6246907;22;20016;-84
2023/05/20 02:55:54;;;;;;;11.25;5.30;;;;;;;9.89;80.11;102482.31;6249028;22;20013;-83
2023/05/20 02:58:25;;;;;;;10.10;5.15;;;;;;;9.87;80.25;102483.84;6247222;22;20067;-84
2023/05/20 03:00:52;;;;;;;7.88;4.80;;;;;;;9.83;80.23;102478.53;6248112;22;20422;-83
2023/05/20 03:03:19;;;;;;;11.63;5.07;;;;;;;9.81;80.18;102486.16;6246995;22;20335;-83
2023/05/20 03:05:45;;;;;;;9.82;4.90;;;;;;;9.80;80.49;102481.22;6247710;22;20017;-83
2023/05/20 03:08:13;;;;;;;9.18;5.30;;;;;;;9.79;80.67;102493.00;6249548;22;20063;-84
2023/05/20 03:10:40;;;;;;;8.73;5.07;;;;;;;9.76;81.08;102491.13;6250960;22;20034;-84
2023/05/20 03:13:08;;;;;;;11.25;5.40;;;;;;;9.74;80.84;102496.84;6249843;22;20023;-84
2023/05/20 03:15:40;;;;;;;5.63;4.88;;;;;;;9.73;81.12;102492.66;6248554;22;20099;-83
2023/05/20 03:18:07;;;;;;;5.93;4.85;;;;;;;9.69;81.30;102494.59;6250634;22;20021;-84
2023/05/20 03:20:38;;;;;;;11.15;5.80;;;;;;;9.68;81.56;102496.50;6248682;22;20375;-83
2023/05/20 03:23:06;;;;;;;8.20;5.53;;;;;;;9.64;81.71;102493.09;6248484;22;20044;-84
2023/05/20 03:25:35;;;;;;;9.40;5.78;;;;;;;9.63;82.02;102496.16;6248296;22;20023;-83
2023/05/20 03:28:02;;;;;;;13.50;5.70;;;;;;;9.61;81.97;102493.88;6223046;22;20025;-84
2023/05/20 03:30:30;;;;;;;6.25;5.07;;;;;;;9.59;82.71;102496.19;6248314;22;20025;-83
2023/05/20 03:32:57;;;;;;;8.68;6.07;;;;;;;9.60;82.67;102496.94;6249038;22;20514;-83
2023/05/20 03:35:25;;;;;;;10.80;5.75;;;;;;;9.59;82.92;102500.75;6248051;22;20386;-83
2023/05/20 03:37:52;;;;;;;10.07;5.70;;;;;;;9.59;82.98;102495.44;6250700;22;20020;-84
2023/05/20 03:40:21;;;;;;;7.43;5.55;;;;;;;9.56;82.92;102496.97;6247677;22;20044;-83
2023/05/20 03:42:49;;;;;;;7.25;5.32;;;;;;;9.57;83.42;102495.06;6248418;22;20794;-83
2023/05/20 03:45:17;;;;;;;7.32;5.55;;;;;;;9.57;83.03;102495.06;6247634;22;20142;-83
2023/05/20 03:47:58;;;;;;;10.25;5.68;;;;;;;9.57;83.18;102487.09;6248493;22;20480;-85
2023/05/20 03:50:25;;;;;;;10.75;5.78;;;;;;;9.54;83.43;102483.31;6249831;22;20067;-82
2023/05/20 03:52:51;;;;;;;6.78;5.20;;;;;;;9.55;82.92;102489.38;6248562;22;20405;-83
2023/05/20 03:55:21;;;;;;;12.20;5.65;;;;;;;9.55;83.49;102490.16;6247865;22;20472;-83
2023/05/20 03:57:47;;;;;;;7.65;5.40;;;;;;;9.55;83.63;102489.38;6248077;22;20017;-83
2023/05/20 04:00:15;;;;;;;12.60;5.63;;;;;;;9.59;83.67;102490.13;6247974;22;20031;-83
2023/05/20 04:02:42;;;;;;;11.23;5.80;;;;;;;9.61;83.87;102493.13;6250596;22;20025;-83
2023/05/20 04:05:12;;;;;;;7.30;5.97;;;;;;;9.63;83.78;102488.16;6248122;22;20328;-83
2023/05/20 04:07:40;;;;;;;5.88;5.30;;;;;;;9.65;83.71;102486.63;6248331;22;20028;-84
2023/05/20 04:10:08;;;;;;;10.50;5.78;;;;;;;9.69;83.95;102484.72;6248309;22;20529;-83
2023/05/20 04:12:36;;;;;;;8.82;5.38;;;;;;;9.73;84.08;102489.25;6247785;22;20017;-84
2023/05/20 04:15:03;;;;;;;6.65;5.75;;;;;;;9.77;83.93;102490.00;6248454;22;20020;-83
2023/05/20 04:17:47;;;;;;;10.52;5.43;;;;;;;9.83;83.67;102491.09;6249331;22;20016;-84
2023/05/20 04:20:14;;;;;;;11.43;5.50;;;;;;;9.90;83.55;102489.13;6222265;22;20024;-84
2023/05/20 04:22:40;;;;;;;8.95;5.55;;;;;;;9.99;83.59;102486.03;6250387;22;20453;-83
2023/05/20 04:25:08;;;;;;;9.43;5.55;;;;;;;10.09;83.35;102489.72;6248109;22;20028;-84
2023/05/20 04:27:38;;;;;;;8.38;5.35;;;;;;;10.15;83.17;102493.47;6249457;22;20985;-84
2023/05/20 04:30:05;;;;;;;10.13;5.40;;;;;;;10.18;82.87;102484.72;6248225;22;20013;-83
2023/05/20 04:32:37;;;;;;;8.05;5.68;;;;;;;10.22;82.78;102493.44;6248028;22;20059;-84
2023/05/20 04:35:10;;;;;;;7.85;5.47;;;;;;;10.29;82.80;102490.72;6248486;22;20520;-84
2023/05/20 04:37:41;;;;;;;6.95;5.57;;;;;;;10.43;82.30;102493.25;6250549;22;20017;-83
2023/05/20 04:40:08;;;;;;;11.60;5.93;;;;;;;10.92;81.19;102497.28;6247591;22;20017;-83
2023/05/20 04:42:36;;;;;;;9.65;5.03;;;;;;;11.13;79.47;102495.53;6248351;22;20043;-85
2023/05/20 04:45:04;;;;;;;8.18;5.82;;;;;;;10.97;79.79;102506.75;6223222;22;20052;-84
2023/05/20 04:47:37;;;;;;;10.68;5.82;;;;;;;11.01;79.71;102505.53;6247722;22;20285;-84
2023/05/20 04:50:12;;;;;;;6.90;4.93;;;;;;;12.02;77.33;102506.41;6250520;22;20339;-84
2023/05/20 04:52:41;;;;;;;7.63;5.68;;;;;;;13.32;72.57;102503.59;6248848;22;20088;-85
2023/05/20 04:55:09;;;;;;;5.45;4.85;;;;;;;15.10;66.64;102507.13;6247871;22;20020;-84
2023/05/20 04:57:40;;;;;;;8.90;5.50;;;;;;;16.46;61.52;102505.03;6247735;22;20025;-85
2023/05/20 05:00:09;;;;;;;6.30;5.30;;;;;;;17.52;57.00;102503.03;6250164;22;20028;-85
2023/05/20 05:02:36;;;;;;;8.63;5.03;;;;;;;18.51;53.32;102508.94;6247780;22;20021;-84
2023/05/20 05:05:03;;;;;;;7.40;4.85;;;;;;;19.22;51.48;102511.13;6248648;22;20083;-87
2023/05/20 05:07:30;;;;;;;11.77;4.90;;;;;;;19.85;49.24;102497.75;6247699;22;20028;-87
2023/05/20 05:09:56;;;;;;;6.85;4.97;;;;;;;20.45;47.67;102504.75;6247887;22;20027;-85
2023/05/20 05:12:23;;;;;;;5.05;4.55;;;;;;;20.90;46.25;102504.25;6247841;22;20017;-87
2023/05/20 05:14:49;;;;;;;8.00;5.60;;;;;;;21.16;45.24;102504.41;6248046;22;20033;-85
2023/05/20 05:17:16;;;;;;;6.93;4.93;;;;;;;21.41;43.96;102499.59;6249213;22;20028;-84
2023/05/20 05:19:43;;;;;;;7.97;4.60;;;;;;;21.70;43.90;102501.41;6250057;22;20091;-85
2023/05/20 05:22:09;;;;;;;6.72;4.60;;;;;;;21.86;42.86;102498.16;6247582;22;20017;-87
2023/05/20 05:24:38;;;;;;;5.85;4.68;;;;;;;22.44;42.23;102496.28;6247959;22;20393;-86
2023/05/20 05:27:04;;;;;;;6.43;4.53;;;;;;;22.63;41.13;102500.91;6251594;22;20029;-86
2023/05/20 05:29:31;;;;;;;10.25;5.05;;;;;;;22.65;41.22;102503.13;6248145;22;20758;-85
2023/05/20 05:31:58;;;;;;;8.48;5.00;;;;;;;22.45;41.58;102497.78;6247636;22;20477;-86
2023/05/20 05:34:24;;;;;;;7.47;4.50;;;;;;;22.50;41.32;102495.09;6247949;22;20016;-86
2023/05/20 05:36:51;;;;;;;6.32;4.35;;;;;;;22.43;41.56;102498.25;6248297;22;20049;-87
2023/05/20 05:39:17;;;;;;;6.35;4.45;;;;;;;22.23;41.65;102499.06;6246938;22;20100;-86
2023/05/20 05:41:44;;;;;;;7.22;4.45;;;;;;;21.94;41.25;102489.16;6248276;22;20413;-86
2023/05/20 05:44:11;;;;;;;11.65;4.88;;;;;;;21.91;41.91;102481.97;6247832;22;20017;-87
2023/05/20 05:46:38;;;;;;;11.60;4.25;;;;;;;21.81;42.72;102486.03;6247955;22;20532;-87
2023/05/20 05:49:05;;;;;;;4.40;4.00;;;;;;;21.45;42.73;102490.06;6248153;22;20020;-90
2023/05/20 05:51:32;;;;;;;4.60;4.20;;;;;;;21.13;43.24;102485.66;6248195;22;20017;-86
2023/05/20 05:53:59;;;;;;;6.28;4.60;;;;;;;21.13;43.82;102485.66;6248753;22;20075;-85
2023/05/20 05:56:26;;;;;;;4.90;4.40;;;;;;;20.93;44.07;102489.06;6222821;22;20335;-84
2023/05/20 05:58:53;;;;;;;4.60;4.20;;;;;;;20.68;44.50;102486.94;6248662;22;20013;-83
2023/05/20 06:01:20;;;;;;;5.55;4.30;;;;;;;20.44;45.33;102484.34;6250504;22;20019;-81
2023/05/20 06:03:47;;;;;;;5.78;4.22;;;;;;;20.00;46.04;102485.00;6248403;22;20055;-86
2023/05/20 06:06:14;;;;;;;4.65;4.25;;;;;;;19.84;46.92;102482.75;6248408;22;20024;-83
2023/05/20 06:08:40;;;;;;;7.13;3.85;;;;;;;19.56;47.32;102482.94;6248277;22;20102;-82
2023/05/20 06:11:09;;;;;;;4.10;3.72;;;;;;;19.35;48.11;102478.53;6248479;22;20722;-85
2023/05/20 06:13:37;;;;;;;6.65;4.68;;;;;;;19.27;48.31;102480.06;6248898;22;20031;-78
2023/05/20 06:16:04;;;;;;;5.35;3.97;;;;;;;18.92;48.81;102490.56;6223412;22;20028;-82
2023/05/20 06:18:31;;;;;;;5.65;3.78;;;;;;;19.03;49.93;102484.69;6248872;22;20017;-88
2023/05/20 06:21:03;;;;;;;4.97;3.88;;;;;;;19.07;49.28;102487.97;6248659;22;20013;-82
2023/05/20 06:23:30;;;;;;;5.32;4.20;;;;;;;18.76;49.63;102485.56;6247803;22;20028;-80
2023/05/20 06:25:59;;;;;;;7.07;4.50;;;;;;;18.70;50.28;102482.72;6248456;22;20052;-79
2023/05/20 06:28:28;;;;;;;4.55;3.97;;;;;;;18.62;49.91;102481.53;6248133;22;20021;-80
2023/05/20 06:30:55;;;;;;;7.53;3.95;;;;;;;18.58;51.16;102480.91;6248627;22;20017;-80
2023/05/20 06:33:24;;;;;;;6.65;3.88;;;;;;;18.57;50.87;102488.25;6247973;22;20023;-79
2023/05/20 06:35:52;;;;;;;6.40;3.90;;;;;;;18.49;50.60;102484.38;6248022;22;20028;-79
2023/05/20 06:38:19;;;;;;;5.47;3.72;;;;;;;18.31;51.10;102481.72;6248103;22;20087;-80
2023/05/20 06:40:48;;;;;;;5.45;3.80;;;;;;;18.17;51.71;102485.00;6250228;22;20435;-78
2023/05/20 06:43:15;;;;;;;6.55;3.63;;;;;;;18.25;51.66;102484.25;6249814;22;20393;-78
2023/05/20 06:46:00;;;;;;;3.38;3.17;;;;;;;18.17;52.67;102479.63;6250386;22;20035;-79
2023/05/20 06:48:31;;;;;;;4.80;3.70;;;;;;;18.26;51.71;102474.97;6248477;22;20017;-79
2023/05/20 06:50:59;;;;;;;4.57;3.33;;;;;;;18.33;51.58;102479.31;6249859;22;20036;-79
2023/05/20 06:53:25;;;;;;;4.47;3.72;;;;;;;18.30;51.77;102472.88;6248422;22;20023;-79
2023/05/20 06:55:54;;;;;;;5.15;3.35;;;;;;;18.32;51.20;102469.75;6248146;22;20148;-79
2023/05/20 06:58:21;;;;;;;3.40;3.10;;;;;;;18.51;50.76;102471.19;6248206;22;20087;-79
2023/05/20 07:00:47;;;;;;;7.07;3.50;;;;;;;18.47;51.37;102461.75;6250267;22;20017;-79
2023/05/20 07:03:15;;;;;;;9.48;3.50;;;;;;;18.74;51.23;102458.28;6247912;22;20020;-79
2023/05/20 07:05:43;;;;;;;3.85;3.55;;;;;;;18.76;50.54;102462.03;6249527;22;20027;-79
2023/05/20 07:08:10;;;;;;;3.72;3.42;;;;;;;18.97;50.80;102458.31;6247646;22;20040;-77
2023/05/20 07:10:37;;;;;;;6.40;3.72;;;;;;;19.20;50.32;102458.81;6248067;22;20024;-78
2023/05/20 07:13:04;;;;;;;5.93;3.58;;;;;;;19.25;49.68;102458.94;6248028;22;20027;-78
2023/05/20 07:15:30;;;;;;;4.57;3.40;;;;;;;19.31;49.55;102450.94;6248068;22;20021;-79
2023/05/20 07:17:58;;;;;;;4.75;3.40;;;;;;;19.43;49.59;102451.94;6247977;22;20463;-78
2023/05/20 07:20:25;;;;;;;5.43;3.25;;;;;;;19.63;49.21;102450.16;6247186;22;20736;-78
2023/05/20 07:22:51;;;;;;;7.82;3.17;;;;;;;19.79;48.85;102450.97;6248232;22;20443;-78
2023/05/20 07:25:22;;;;;;;4.25;3.03;;;;;;;19.78;47.68;102442.09;6249780;22;20426;-80
2023/05/20 07:27:49;;;;;;;3.45;3.17;;;;;;;19.78;47.52;102452.16;6223236;22;20021;-78
2023/05/20 07:30:15;;;;;;;7.35;3.30;;;;;;;19.80;47.44;102449.75;6247928;22;20040;-78
2023/05/20 07:32:49;;;;;;;3.20;3.00;;;;;;;19.96;47.00;102446.63;6247973;22;20539;-79
2023/05/20 07:35:16;;;;;;;4.10;2.90;;;;;;;19.94;46.60;102433.56;6249182;22;20017;-79
2023/05/20 07:37:43;;;;;;;6.25;3.35;;;;;;;20.15;46.18;102439.81;6248321;22;20071;-80
2023/05/20 07:40:10;;;;;;;6.05;2.78;;;;;;;20.16;46.47;102438.63;6247919;22;20516;-80
2023/05/20 07:42:37;;;;;;;3.08;2.78;;;;;;;20.17;45.85;102442.06;6249792;22;20091;-80
2023/05/20 07:45:04;;;;;;;6.47;2.58;;;;;;;20.16;44.99;102430.50;6248152;22;20025;-80
2023/05/20 07:47:32;;;;;;;3.97;2.70;;;;;;;20.40;44.90;102433.13;6247623;22;20017;-79
2023/05/20 07:49:59;;;;;;;2.97;2.70;;;;;;;20.62;44.94;102430.03;6247520;22;20044;-79
2023/05/20 07:52:26;;;;;;;3.10;2.78;;;;;;;20.63;43.79;102434.97;6247604;22;20417;-79
2023/05/20 07:54:52;;;;;;;3.15;2.78;;;;;;;20.64;44.21;102427.63;6248949;22;20020;-77
2023/05/20 07:57:19;;;;;;;4.75;2.42;;;;;;;20.90;43.91;102431.19;6248748;22;20072;-79
2023/05/20 07:59:46;;;;;;;2.50;2.30;;;;;;;20.63;42.51;102418.75;6224609;22;20461;-77
2023/05/20 08:02:14;;;;;;;2.05;1.95;;;;;;;20.63;42.78;102424.16;6248909;22;20048;-79
2023/05/20 08:04:40;;;;;;;4.47;2.40;;;;;;;20.58;42.55;102413.25;6248755;22;20024;-79
2023/05/20 08:07:07;;;;;;;3.80;2.25;;;;;;;20.82;43.54;102419.25;6249050;22;20075;-79
2023/05/20 08:09:43;;;;;;;25.70;2.88;;;;;;;21.13;42.07;102410.59;6249295;22;20020;-78
2023/05/20 08:12:09;;;;;;;2.53;2.20;;;;;;;21.09;40.85;102407.34;6250918;22;20040;-83
2023/05/20 08:14:36;;;;;;;2.40;2.20;;;;;;;21.07;41.04;102409.03;6249877;22;20513;-84
2023/05/20 08:17:03;;;;;;;2.10;2.00;;;;;;;21.08;40.63;102413.22;6251495;22;20013;-84
2023/05/20 08:19:30;;;;;;;1.95;1.85;;;;;;;21.21;40.04;102403.56;6250569;22;20021;-83
2023/05/20 08:21:57;;;;;;;2.60;2.05;;;;;;;21.26;39.83;102410.25;6248486;22;20020;-83
2023/05/20 08:24:23;;;;;;;3.63;1.92;;;;;;;21.32;40.11;102426.59;6248546;22;20021;-82
2023/05/20 08:26:50;;;;;;;2.17;2.05;;;;;;;21.33;38.59;102412.56;6249159;22;20406;-82
2023/05/20 08:29:18;;;;;;;2.55;2.00;;;;;;;21.29;38.84;102409.31;6248580;22;20021;-82
2023/05/20 08:31:45;;;;;;;2.30;2.10;;;;;;;21.22;38.65;102418.59;6248955;22;20017;-82
2023/05/20 08:34:12;;;;;;;5.88;2.00;;;;;;;21.35;39.50;102409.38;6247697;22;20025;-82
2023/05/20 08:36:39;;;;;;;9.70;2.22;;;;;;;21.49;38.55;102403.91;6249028;22;20016;-82
2023/05/20 08:39:06;;;;;;;4.93;1.95;;;;;;;21.60;39.04;102398.59;6248743;22;20469;-82
2023/05/20 08:41:33;;;;;;;6.05;2.13;;;;;;;21.81;37.92;102393.88;6248670;22;20494;-82
2023/05/20 08:44:01;;;;;;;4.25;1.98;;;;;;;21.83;37.10;102407.69;6248444;22;20024;-81
2023/05/20 08:46:27;;;;;;;4.05;2.33;;;;;;;21.76;37.33;102396.53;6248025;22;20071;-82
2023/05/20 08:48:55;;;;;;;2.42;1.85;;;;;;;21.76;37.13;102391.09;6248842;22;20024;-82
2023/05/20 08:51:25;;;;;;;8.63;2.00;;;;;;;21.72;37.01;102388.59;6223152;22;20031;-82
2023/05/20 08:53:53;;;;;;;5.97;1.98;;;;;;;21.61;36.85;102378.38;6250699;22;20020;-86
2023/05/20 08:56:20;;;;;;;1.98;1.88;;;;;;;21.60;36.59;102387.00;6249340;22;20067;-78
2023/05/20 08:58:47;;;;;;;3.83;2.20;;;;;;;21.39;37.13;102382.84;6248986;22;20042;-76
2023/05/20 09:01:13;;;;;;;4.30;1.95;;;;;;;21.19;37.82;102381.59;6247562;22;20407;-77
2023/05/20 09:03:40;;;;;;;1.83;1.73;;;;;;;20.99;37.71;102378.88;6248810;22;20021;-78
2023/05/20 09:06:08;;;;;;;3.80;2.00;;;;;;;21.14;38.38;102379.59;6247915;22;20454;-79
2023/05/20 09:08:35;;;;;;;6.53;1.90;;;;;;;21.29;37.39;102376.81;6248763;22;20012;-78
2023/05/20 09:11:02;;;;;;;1.90;1.80;;;;;;;21.44;37.08;102379.44;6248782;22;20467;-79
2023/05/20 09:13:31;;;;;;;2.17;1.67;;;;;;;21.58;36.91;102373.22;6248173;22;20510;-79
2023/05/20 09:16:00;;;;;;;2.88;1.85;;;;;;;21.58;37.40;102387.50;6246552;22;20016;-78
2023/05/20 09:18:28;;;;;;;2.30;2.10;;;;;;;21.36;37.09;102378.38;6248408;22;20017;-77
2023/05/20 09:20:54;;;;;;;2.40;2.10;;;;;;;21.38;37.37;102375.94;6248885;22;20052;-78
2023/05/20 09:23:21;;;;;;;3.80;1.98;;;;;;;21.24;37.84;102374.78;6247757;22;20024;-79
2023/05/20 09:25:52;;;;;;;2.00;1.90;;;;;;;21.40;36.84;102379.66;6247329;22;20012;-78
2023/05/20 09:28:23;;;;;;;3.97;1.70;;;;;;;21.45;37.17;102380.94;6248089;22;20024;-81
2023/05/20 09:30:50;;;;;;;2.13;1.90;;;;;;;21.47;37.03;102362.25;6247678;22;20075;-81
2023/05/20 09:33:17;;;;;;;2.03;1.90;;;;;;;21.58;36.76;102357.69;6244445;22;20476;-81
2023/05/20 09:35:44;;;;;;;3.55;1.98;;;;;;;21.66;35.98;102379.69;6220576;22;20017;-81
2023/05/20 09:38:12;;;;;;;4.63;2.28;;;;;;;21.45;36.33;102351.88;6247796;22;20421;-82
2023/05/20 09:40:43;;;;;;;3.22;3.03;;;;;;;21.60;35.89;102352.53;6246627;22;20021;-81
2023/05/20 09:43:11;;;;;;;2.33;2.13;;;;;;;21.60;35.98;102352.53;6247964;22;20017;-81
2023/05/20 09:45:37;;;;;;;5.40;2.00;;;;;;;21.61;35.46;102350.56;6248018;22;20019;-83
2023/05/20 09:48:07;;;;;;;7.40;2.22;;;;;;;21.80;35.89;102364.53;6246593;22;20024;-83
2023/05/20 09:50:35;;;;;;;5.03;2.00;;;;;;;22.03;36.22;102355.38;6248503;22;20462;-84
2023/05/20 09:53:03;;;;;;;3.25;2.90;;;;;;;21.91;36.26;102351.09;6221134;22;20078;-82
2023/05/20 09:55:30;;;;;;;2.30;1.90;;;;;;;22.06;36.66;102365.28;6246484;22;20024;-83
2023/05/20 09:58:01;;;;;;;5.88;2.30;;;;;;;22.25;35.99;102352.13;6202742;22;1049047;-82
2023/05/20 10:00:27;;;;;;;2.08;1.98;;;;;;;22.23;34.79;102346.44;6249313;22;20036;-81
2023/05/20 10:02:55;;;;;;;4.50;2.20;;;;;;;22.13;34.57;102345.13;6250364;22;20020;-82
2023/05/20 10:05:26;;;;;;;2.90;2.13;;;;;;;22.04;35.68;102340.63;6248571;22;20020;-81
2023/05/20 10:08:11;;;;;;;4.65;2.25;;;;;;;21.91;36.17;102340.25;6248923;22;20024;-81
2023/05/20 10:10:47;;;;;;;2.35;2.15;;;;;;;21.73;36.13;102346.00;6249322;22;20023;-81
2023/05/20 10:13:59;;;;;;;2.47;2.00;;;;;;;21.70;37.08;102344.22;6248012;22;20068;-81
2023/05/20 10:16:56;;;;;;;2.95;2.13;;;;;;;21.93;36.46;102333.13;6249421;22;20019;-81
2023/05/20 10:19:27;;;;;;;3.33;2.10;;;;;;;22.04;35.99;102327.06;6249439;22;20497;-81
2023/05/20 10:22:03;;;;;;;2.10;2.00;;;;;;;22.36;35.75;102335.94;6250253;22;20019;-79
2023/05/20 10:24:39;;;;;;;6.95;2.78;;;;;;;22.27;35.49;102325.25;6250144;22;20024;-77
2023/05/20 10:27:08;;;;;;;4.43;2.72;;;;;;;22.29;35.13;102323.56;6249760;22;20016;-77
2023/05/20 10:30:14;;;;;;;2.30;2.10;;;;;;;22.40;36.12;102303.88;6249282;22;20115;-76
2023/05/20 10:32:50;;;;;;;4.40;1.90;;;;;;;22.48;35.45;102315.00;6230498;22;20110;-79
2023/05/20 10:35:22;;;;;;;5.43;1.88;;;;;;;22.49;35.49;102305.66;6248127;22;20067;-77
2023/05/20 10:37:53;;;;;;;2.58;2.20;;;;;;;22.43;35.41;102313.00;6248517;22;20075;-78
2023/05/20 10:40:21;;;;;;;7.80;2.17;;;;;;;22.21;35.07;102298.09;6248409;22;20391;-77
2023/05/20 10:42:48;;;;;;;2.10;1.88;;;;;;;22.67;35.14;102293.66;6249496;22;20012;-78
2023/05/20 10:45:28;;;;;;;2.63;2.30;;;;;;;23.31;35.56;102282.00;6247462;22;20021;-78
2023/05/20 10:47:56;;;;;;;3.88;1.90;;;;;;;23.39;34.34;102288.44;6250035;22;20019;-76
2023/05/20 10:50:37;;;;;;;2.95;2.20;;;;;;;23.08;35.15;102294.81;6247959;22;20019;-77
2023/05/20 10:53:05;;;;;;;2.22;2.13;;;;;;;22.73;34.71;102297.13;6249454;22;20020;-77
2023/05/20 10:55:40;;;;;;;3.50;1.83;;;;;;;22.47;34.77;102298.00;6248466;22;20075;-76
2023/05/20 10:58:08;;;;;;;2.17;2.08;;;;;;;22.20;35.50;102304.00;6246935;22;20016;-77
2023/05/20 11:00:36;;;;;;;2.85;2.22;;;;;;;22.00;35.68;102288.53;6250027;22;20405;-76
2023/05/20 11:03:04;;;;;;;2.30;2.15;;;;;;;22.20;35.83;102285.75;6247146;22;20021;-77
2023/05/20 11:05:31;;;;;;;2.50;2.30;;;;;;;22.57;35.34;102283.00;6249835;22;20124;-76
2023/05/20 11:08:07;;;;;;;3.45;1.92;;;;;;;22.92;35.18;102274.53;6250025;22;20043;-80
2023/05/20 11:10:55;;;;;;;2.75;2.00;;;;;;;23.39;34.74;102279.56;6250085;22;20012;-79
2023/05/20 11:13:21;;;;;;;3.25;2.28;;;;;;;23.26;33.99;102272.63;6246919;22;20457;-78
2023/05/20 11:15:49;;;;;;;3.72;2.40;;;;;;;23.26;34.78;102266.44;6247575;22;20099;-77
2023/05/20 11:18:16;;;;;;;4.90;2.72;;;;;;;23.51;34.36;102264.75;6248151;22;20452;-81
2023/05/20 11:20:45;;;;;;;2.35;2.10;;;;;;;23.42;33.60;102268.44;6248074;22;20048;-79
2023/05/20 11:23:13;;;;;;;2.20;2.00;;;;;;;23.68;33.61;102262.78;6247262;22;20099;-80
2023/05/20 11:25:40;;;;;;;4.35;1.90;;;;;;;23.67;33.43;102268.72;6250109;22;20016;-80
2023/05/20 11:28:12;;;;;;;3.60;2.30;;;;;;;23.45;34.15;102278.34;6247341;22;20019;-80
2023/05/20 11:30:41;;;;;;;4.40;2.13;;;;;;;23.28;34.97;102272.88;6251515;22;20017;-80